createdAt,value
2022-11-02T00:00:34.723Z,4.13
2022-11-02T00:03:01.232Z,4.50
2022-11-02T00:05:27.741Z,4.07
2022-11-02T00:07:55.299Z,4.13
2022-11-02T00:10:23.014Z,4.20
2022-11-02T00:12:49.951Z,5.03
2022-11-02T00:15:16.310Z,4.00
2022-11-02T00:17:46.476Z,4.30
2022-11-02T00:20:14.858Z,4.30
2022-11-02T00:22:42.579Z,4.23
2022-11-02T00:25:12.681Z,4.43
2022-11-02T00:27:40.562Z,5.40
2022-11-02T00:30:08.101Z,5.80
2022-11-02T00:32:34.703Z,4.70
2022-11-02T00:35:00.984Z,5.40
2022-11-02T00:37:27.310Z,4.50
2022-11-02T00:39:53.646Z,4.70
2022-11-02T00:42:20.013Z,4.90
2022-11-02T00:44:46.319Z,4.37
2022-11-02T00:47:12.671Z,4.90
2022-11-02T00:49:39.054Z,5.10
2022-11-02T00:52:05.371Z,4.13
2022-11-02T00:54:31.728Z,5.00
2022-11-02T00:56:58.109Z,4.70
2022-11-02T00:59:24.488Z,4.70
2022-11-02T01:01:50.912Z,4.50
2022-11-02T01:04:17.710Z,4.97
2022-11-02T01:06:44.661Z,4.90
2022-11-02T01:09:11.710Z,5.57
2022-11-02T01:11:38.009Z,4.47
2022-11-02T01:14:04.377Z,4.67
2022-11-02T01:16:32.079Z,4.93
2022-11-02T01:18:59.007Z,4.73
2022-11-02T01:21:25.986Z,5.27
2022-11-02T01:23:52.759Z,4.50
2022-11-02T01:26:19.259Z,4.70
2022-11-02T01:28:45.585Z,4.67
2022-11-02T01:31:11.998Z,5.00
2022-11-02T01:33:42.857Z,4.83
2022-11-02T01:36:09.505Z,5.57
2022-11-02T01:38:35.827Z,4.20
2022-11-02T01:41:02.217Z,4.63
2022-11-02T01:43:31.958Z,4.50
2022-11-02T01:46:12.802Z,4.87
2022-11-02T01:48:45.984Z,4.17
2022-11-02T01:51:35.468Z,5.07
2022-11-02T01:54:37.911Z,4.53
2022-11-02T01:57:07.001Z,5.50
2022-11-02T01:59:38.668Z,4.87
2022-11-02T02:02:14.099Z,5.03
2022-11-02T02:04:41.180Z,5.20
2022-11-02T02:07:07.703Z,4.90
2022-11-02T02:09:34.752Z,5.00
2022-11-02T02:12:01.363Z,4.90
2022-11-02T02:14:27.919Z,4.50
2022-11-02T02:17:14.950Z,4.70
2022-11-02T02:19:44.183Z,5.40
2022-11-02T02:22:13.502Z,5.20
2022-11-02T02:25:04.630Z,4.50
2022-11-02T02:27:49.462Z,4.90
2022-11-02T02:30:16.778Z,4.53
2022-11-02T02:32:54.738Z,4.97
2022-11-02T02:35:32.614Z,5.17
2022-11-02T02:38:03.851Z,5.00
2022-11-02T02:40:36.128Z,4.70
2022-11-02T02:43:12.055Z,5.20
2022-11-02T02:45:53.351Z,4.93
2022-11-02T02:48:21.802Z,4.10
2022-11-02T02:51:09.323Z,4.70
2022-11-02T02:53:44.195Z,5.50
2022-11-02T02:56:13.063Z,5.03
2022-11-02T02:58:48.519Z,5.13
2022-11-02T03:01:17.073Z,5.00
2022-11-02T03:03:44.496Z,5.40
2022-11-02T03:06:24.595Z,5.33
2022-11-02T03:09:34.633Z,5.00
2022-11-02T03:12:26.151Z,5.17
2022-11-02T03:14:55.123Z,5.93
2022-11-02T03:17:47.621Z,5.67
2022-11-02T03:20:41.973Z,5.50
2022-11-02T03:23:15.323Z,5.60
2022-11-02T03:26:03.684Z,5.73
2022-11-02T03:28:51.078Z,5.70
2022-11-02T03:31:31.272Z,5.43
2022-11-02T03:34:14.333Z,5.57
2022-11-02T03:37:05.170Z,5.70
2022-11-02T03:39:38.087Z,5.97
2022-11-02T03:42:05.435Z,5.30
2022-11-02T03:44:37.547Z,5.20
2022-11-02T03:47:05.470Z,5.00
2022-11-02T03:49:33.285Z,5.50
2022-11-02T03:52:03.759Z,6.13
2022-11-02T03:54:40.452Z,5.57
2022-11-02T03:57:11.892Z,5.50
2022-11-02T03:59:38.213Z,5.90
2022-11-02T04:02:04.649Z,6.00
2022-11-02T04:04:31.087Z,6.10
2022-11-02T04:06:57.444Z,5.90
2022-11-02T04:09:23.929Z,5.33
2022-11-02T04:12:08.680Z,5.90
2022-11-02T04:14:37.739Z,5.47
2022-11-02T04:17:28.326Z,5.70
2022-11-02T04:19:55.556Z,6.07
2022-11-02T04:22:40.821Z,5.60
2022-11-02T04:25:18.741Z,5.13
2022-11-02T04:27:47.839Z,5.30
2022-11-02T04:30:16.521Z,5.00
2022-11-02T04:33:04.086Z,6.07
2022-11-02T04:35:31.057Z,4.40
2022-11-02T04:38:16.499Z,5.27
2022-11-02T04:40:42.879Z,4.83
2022-11-02T04:43:09.306Z,4.20
2022-11-02T04:45:36.227Z,3.83
2022-11-02T04:48:06.368Z,4.33
2022-11-02T04:50:33.193Z,3.60
2022-11-02T04:53:01.593Z,4.30
2022-11-02T04:55:28.277Z,3.70
2022-11-02T04:57:54.707Z,4.37
2022-11-02T05:00:22.000Z,4.37
2022-11-02T05:02:49.436Z,4.10
2022-11-02T05:05:17.270Z,4.30
2022-11-02T05:07:44.051Z,3.63
2022-11-02T05:10:10.753Z,3.60
2022-11-02T05:12:37.371Z,3.50
2022-11-02T05:15:04.808Z,4.10
2022-11-02T05:17:31.144Z,4.17
2022-11-02T05:19:57.491Z,3.20
2022-11-02T05:22:23.775Z,3.57
2022-11-02T05:24:50.095Z,4.30
2022-11-02T05:27:16.667Z,3.80
2022-11-02T05:29:42.939Z,3.90
2022-11-02T05:32:09.298Z,3.50
2022-11-02T05:34:35.615Z,3.23
2022-11-02T05:37:01.911Z,3.10
2022-11-02T05:39:28.279Z,3.37
2022-11-02T05:41:54.845Z,3.97
2022-11-02T05:44:21.290Z,2.87
2022-11-02T05:46:47.583Z,3.17
2022-11-02T05:49:13.940Z,3.40
2022-11-02T05:51:40.229Z,3.20
2022-11-02T05:54:06.530Z,3.80
2022-11-02T05:56:32.831Z,3.40
2022-11-02T05:58:59.123Z,3.00
2022-11-02T06:01:25.464Z,3.43
2022-11-02T06:03:53.811Z,2.73
2022-11-02T06:06:21.230Z,3.27
2022-11-02T06:08:47.916Z,3.40
2022-11-02T06:11:15.032Z,2.90
2022-11-02T06:13:42.064Z,3.10
2022-11-02T06:16:10.602Z,3.90
2022-11-02T06:18:38.337Z,3.23
2022-11-02T06:21:04.984Z,4.03
2022-11-02T06:23:31.380Z,3.40
2022-11-02T06:25:59.654Z,2.93
2022-11-02T06:28:26.786Z,3.50
2022-11-02T06:30:53.115Z,4.03
2022-11-02T06:33:19.795Z,3.40
2022-11-02T06:35:53.444Z,3.23
2022-11-02T06:38:20.278Z,3.03
2022-11-02T06:41:04.177Z,3.10
2022-11-02T06:43:30.590Z,3.13
2022-11-02T06:45:58.177Z,3.40
2022-11-02T06:48:31.291Z,3.33
2022-11-02T06:51:01.268Z,3.20
2022-11-02T06:53:27.740Z,3.60
2022-11-02T06:55:55.495Z,3.00
2022-11-02T06:58:23.262Z,3.10
2022-11-02T07:00:49.810Z,3.20
2022-11-02T07:03:16.559Z,3.07
2022-11-02T07:05:43.732Z,3.60
2022-11-02T07:08:10.002Z,4.10
2022-11-02T07:10:36.394Z,3.70
2022-11-02T07:13:03.574Z,3.80
2022-11-02T07:15:30.269Z,3.40
2022-11-02T07:17:56.625Z,3.20
2022-11-02T07:20:23.237Z,3.00
2022-11-02T07:22:55.408Z,3.30
2022-11-02T07:25:22.422Z,3.43
2022-11-02T07:27:48.764Z,3.00
2022-11-02T07:30:15.435Z,3.80
2022-11-02T07:32:43.264Z,3.73
2022-11-02T07:35:12.320Z,2.87
2022-11-02T07:37:38.754Z,3.47
2022-11-02T07:40:06.847Z,3.50
2022-11-02T07:42:33.627Z,4.33
2022-11-02T07:44:59.965Z,3.70
2022-11-02T07:47:26.744Z,3.53
2022-11-02T07:49:53.036Z,3.30
2022-11-02T07:52:19.319Z,2.90
2022-11-02T07:54:45.641Z,2.70
2022-11-02T07:57:11.948Z,4.00
2022-11-02T07:59:38.244Z,3.13
2022-11-02T08:02:04.564Z,3.87
2022-11-02T08:04:30.854Z,2.87
2022-11-02T08:06:58.886Z,3.47
2022-11-02T08:09:25.206Z,3.77
2022-11-02T08:11:51.526Z,3.37
2022-11-02T08:14:17.863Z,3.77
2022-11-02T08:16:44.407Z,3.60
2022-11-02T08:19:10.714Z,3.43
2022-11-02T08:21:36.990Z,3.30
2022-11-02T08:24:03.422Z,3.47
2022-11-02T08:26:29.732Z,2.97
2022-11-02T08:28:56.055Z,2.87
2022-11-02T08:31:22.344Z,4.10
2022-11-02T08:33:48.644Z,3.87
2022-11-02T08:36:15.022Z,3.97
2022-11-02T08:38:42.259Z,3.40
2022-11-02T08:41:08.607Z,3.50
2022-11-02T08:43:35.013Z,3.50
2022-11-02T08:46:14.721Z,3.00
2022-11-02T08:48:41.975Z,3.83
2022-11-02T08:51:08.902Z,3.60
2022-11-02T08:53:35.254Z,3.50
2022-11-02T08:56:01.597Z,3.90
2022-11-02T08:58:27.946Z,3.83
2022-11-02T09:00:54.842Z,3.60
2022-11-02T09:03:26.464Z,4.03
2022-11-02T09:05:59.657Z,3.13
2022-11-02T09:08:27.572Z,3.60
2022-11-02T09:10:59.167Z,4.37
2022-11-02T09:13:25.762Z,3.50
2022-11-02T09:15:54.419Z,2.90
2022-11-02T09:18:21.572Z,3.93
2022-11-02T09:20:48.688Z,3.50
2022-11-02T09:23:19.434Z,3.03
2022-11-02T09:25:45.891Z,3.27
2022-11-02T09:28:13.887Z,3.33
2022-11-02T09:30:40.287Z,3.13
2022-11-02T09:33:07.522Z,3.77
2022-11-02T09:35:37.360Z,3.20
2022-11-02T09:38:03.685Z,3.40
2022-11-02T09:40:59.431Z,3.17
2022-11-02T09:44:07.100Z,3.73
2022-11-02T09:46:40.095Z,3.30
2022-11-02T09:49:16.561Z,3.67
2022-11-02T09:51:54.886Z,2.80
2022-11-02T09:54:36.712Z,4.03
2022-11-02T09:57:09.212Z,3.37
2022-11-02T09:59:35.528Z,3.23
2022-11-02T10:02:04.702Z,3.23
2022-11-02T10:04:56.682Z,3.87
2022-11-02T10:07:41.152Z,3.63
2022-11-02T10:10:15.099Z,3.33
2022-11-02T10:12:55.891Z,3.00
2022-11-02T10:15:28.390Z,3.63
2022-11-02T10:17:58.728Z,3.10
2022-11-02T10:20:45.180Z,3.00
2022-11-02T10:23:18.966Z,3.00
2022-11-02T10:25:47.452Z,3.10
2022-11-02T10:28:18.848Z,3.60
2022-11-02T10:30:45.474Z,3.27
2022-11-02T10:33:18.092Z,3.40
2022-11-02T10:36:19.762Z,3.30
2022-11-02T10:39:23.827Z,3.47
2022-11-02T10:42:03.086Z,3.40
2022-11-02T10:45:01.461Z,2.63
2022-11-02T10:47:34.313Z,3.00
2022-11-02T10:50:30.299Z,3.73
2022-11-02T10:53:20.313Z,3.30
2022-11-02T10:56:03.568Z,3.80
2022-11-02T10:58:33.486Z,3.00
2022-11-02T11:01:07.271Z,2.80
2022-11-02T11:03:33.758Z,3.17
2022-11-02T11:06:05.149Z,3.17
2022-11-02T11:08:38.013Z,3.50
2022-11-02T11:11:15.084Z,3.10
2022-11-02T11:16:56.721Z,2.80
2022-11-02T11:19:46.848Z,3.00
2022-11-02T11:22:32.288Z,3.27
2022-11-02T11:25:10.409Z,2.97
2022-11-02T11:27:51.694Z,2.80
2022-11-02T11:30:46.308Z,2.70
2022-11-02T11:33:17.099Z,3.00
2022-11-02T11:35:49.132Z,3.43
2022-11-02T11:38:19.291Z,3.40
2022-11-02T11:40:49.206Z,3.53
2022-11-02T11:43:17.847Z,3.40
2022-11-02T11:46:14.391Z,3.40
2022-11-02T11:48:42.407Z,3.00
2022-11-02T11:51:25.704Z,4.43
2022-11-02T11:54:14.616Z,2.90
2022-11-02T11:56:41.017Z,3.50
2022-11-02T11:59:22.577Z,3.07
2022-11-02T12:01:50.239Z,3.40
2022-11-02T12:04:27.466Z,3.20
2022-11-02T12:06:56.504Z,3.20
2022-11-02T12:09:51.871Z,3.20
2022-11-02T12:12:28.965Z,3.33
2022-11-02T12:15:13.859Z,2.77
2022-11-02T12:17:51.429Z,3.43
2022-11-02T12:20:35.310Z,3.20
2022-11-02T12:23:04.929Z,3.23
2022-11-02T12:25:49.471Z,3.33
2022-11-02T12:28:49.782Z,2.93
2022-11-02T12:31:35.800Z,3.20
2022-11-02T12:34:27.098Z,2.77
2022-11-02T12:37:39.972Z,3.20
2022-11-02T12:40:12.965Z,2.80
2022-11-02T12:42:59.558Z,3.13
2022-11-02T12:45:48.087Z,3.33
2022-11-02T12:48:29.793Z,3.47
2022-11-02T12:51:14.581Z,3.10
2022-11-02T12:53:46.626Z,2.73
2022-11-02T12:56:26.911Z,2.77
2022-11-02T12:58:54.133Z,2.73
2022-11-02T13:01:23.960Z,2.87
2022-11-02T13:03:50.348Z,3.40
2022-11-02T13:06:21.894Z,3.20
2022-11-02T13:08:57.757Z,2.80
2022-11-02T13:11:31.666Z,2.93
2022-11-02T13:13:59.763Z,2.97
2022-11-02T13:16:40.613Z,2.97
2022-11-02T13:19:15.925Z,3.30
2022-11-02T13:21:49.416Z,3.83
2022-11-02T13:24:25.081Z,2.60
2022-11-02T13:26:57.583Z,3.23
2022-11-02T13:29:40.439Z,3.90
2022-11-02T13:32:37.779Z,3.27
2022-11-02T13:35:16.482Z,3.27
2022-11-02T13:37:47.094Z,2.90
2022-11-02T13:40:24.910Z,3.50
2022-11-02T13:43:15.905Z,4.13
2022-11-02T13:45:45.246Z,4.20
2022-11-02T13:48:34.976Z,3.63
2022-11-02T13:51:08.158Z,3.53
2022-11-02T13:53:38.914Z,4.30
2022-11-02T13:56:20.951Z,3.20
2022-11-02T13:58:53.054Z,3.63
2022-11-02T14:01:20.322Z,3.47
2022-11-02T14:04:01.676Z,3.70
2022-11-02T14:06:31.200Z,3.07
2022-11-02T14:09:05.213Z,3.90
2022-11-02T14:11:36.267Z,3.87
2022-11-02T14:14:02.523Z,3.53
2022-11-02T14:16:50.807Z,3.40
2022-11-02T14:19:19.081Z,3.03
2022-11-02T14:21:49.024Z,3.90
2022-11-02T14:24:37.032Z,3.30
2022-11-02T14:27:12.667Z,3.30
2022-11-02T14:29:42.104Z,3.00
2022-11-02T14:32:17.325Z,2.80
2022-11-02T14:35:04.266Z,3.73
2022-11-02T14:37:56.655Z,3.20
2022-11-02T14:40:48.068Z,3.10
2022-11-02T14:43:24.019Z,3.00
2022-11-02T14:45:50.430Z,2.90
2022-11-02T14:48:16.963Z,3.30
2022-11-02T14:51:06.519Z,3.30
2022-11-02T14:53:36.349Z,2.67
2022-11-02T14:56:03.232Z,3.27
2022-11-02T14:58:37.339Z,2.80
2022-11-02T15:01:05.152Z,3.33
2022-11-02T15:03:36.907Z,2.90
2022-11-02T15:06:21.153Z,3.33
2022-11-02T15:08:53.933Z,3.20
2022-11-02T15:11:41.940Z,4.30
2022-11-02T15:14:38.743Z,3.30
2022-11-02T15:17:17.393Z,3.17
2022-11-02T15:19:50.432Z,2.60
2022-11-02T15:22:29.040Z,3.47
2022-11-02T15:24:58.581Z,3.00
2022-11-02T15:27:25.316Z,3.10
2022-11-02T15:29:52.860Z,2.90
2022-11-02T15:32:23.937Z,3.47
2022-11-02T15:34:53.303Z,3.10
2022-11-02T15:37:25.142Z,3.90
2022-11-02T15:39:57.934Z,3.20
2022-11-02T15:42:51.036Z,3.70
2022-11-02T15:45:50.242Z,3.10
2022-11-02T15:48:55.841Z,3.53
2022-11-02T15:51:36.627Z,3.77
2022-11-02T15:54:11.887Z,2.87
2022-11-02T15:56:56.852Z,3.30
2022-11-02T15:59:44.478Z,3.00
2022-11-02T16:02:34.872Z,2.93
2022-11-02T16:05:03.768Z,4.17
2022-11-02T16:07:38.533Z,3.47
2022-11-02T16:10:31.100Z,2.70
2022-11-02T16:13:01.204Z,3.13
2022-11-02T16:15:29.384Z,3.30
2022-11-02T16:17:55.987Z,3.20
2022-11-02T16:20:23.790Z,3.00
2022-11-02T16:23:00.786Z,3.37
2022-11-02T16:25:41.754Z,2.83
2022-11-02T16:28:18.575Z,3.10
2022-11-02T16:31:10.896Z,3.37
2022-11-02T16:33:50.688Z,2.87
2022-11-02T16:36:23.256Z,2.93
2022-11-02T16:39:01.394Z,2.77
2022-11-02T16:41:32.943Z,3.30
2022-11-02T16:44:11.414Z,2.87
2022-11-02T16:46:54.699Z,3.00
2022-11-02T16:49:25.463Z,2.80
2022-11-02T16:51:57.736Z,3.10
2022-11-02T16:54:40.270Z,2.80
2022-11-02T16:57:12.507Z,3.10
2022-11-02T17:00:07.940Z,3.00
2022-11-02T17:02:37.759Z,3.20
2022-11-02T17:05:07.300Z,3.33
2022-11-02T17:07:42.990Z,3.13
2022-11-02T17:10:23.902Z,3.80
2022-11-02T17:12:50.675Z,3.60
2022-11-02T17:15:20.526Z,4.00
2022-11-02T17:17:47.523Z,4.83
2022-11-02T17:20:16.650Z,4.30
2022-11-02T17:22:55.458Z,4.90
2022-11-02T17:25:37.410Z,5.27
2022-11-02T17:28:25.133Z,5.43
2022-11-02T17:30:52.568Z,5.60
2022-11-02T17:33:21.960Z,6.17
2022-11-02T17:35:50.318Z,6.40
2022-11-02T17:38:17.440Z,5.30
2022-11-02T17:40:44.149Z,5.00
2022-11-02T17:43:10.661Z,4.63
2022-11-02T17:45:39.986Z,4.43
2022-11-02T17:48:08.263Z,4.50
2022-11-02T17:50:37.427Z,4.20
2022-11-02T17:53:05.028Z,4.53
2022-11-02T17:55:33.966Z,4.40
2022-11-02T17:58:00.570Z,4.63
2022-11-02T18:00:28.813Z,4.10
2022-11-02T18:02:58.892Z,5.20
2022-11-02T18:05:27.747Z,3.90
2022-11-02T18:07:55.738Z,4.17
2022-11-02T18:10:43.177Z,3.37
2022-11-02T18:13:12.792Z,4.13
2022-11-02T18:15:39.855Z,3.53
2022-11-02T18:18:06.480Z,3.50
2022-11-02T18:20:37.321Z,3.93
2022-11-02T18:23:08.044Z,4.10
2022-11-02T18:25:34.612Z,3.73
2022-11-02T18:28:01.999Z,3.57
2022-11-02T18:30:29.666Z,3.50
2022-11-02T18:32:56.947Z,4.03
2022-11-02T18:35:24.371Z,3.90
2022-11-02T18:37:50.900Z,3.63
2022-11-02T18:40:18.987Z,3.90
2022-11-02T18:42:45.787Z,3.10
2022-11-02T18:45:14.789Z,3.70
2022-11-02T18:47:41.950Z,3.43
2022-11-02T18:50:10.237Z,3.67
2022-11-02T18:52:40.177Z,3.80
2022-11-02T18:55:07.041Z,4.00
2022-11-02T18:57:33.456Z,3.37
2022-11-02T19:00:02.743Z,3.87
2022-11-02T19:02:29.548Z,3.70
2022-11-02T19:04:56.007Z,3.40
2022-11-02T19:07:41.215Z,4.00
2022-11-02T19:10:07.833Z,4.00
2022-11-02T19:12:34.388Z,3.73
2022-11-02T19:15:01.965Z,4.03
2022-11-02T19:17:28.361Z,3.83
2022-11-02T19:19:54.732Z,3.47
2022-11-02T19:22:23.603Z,3.63
2022-11-02T19:24:50.241Z,3.30
2022-11-02T19:27:19.903Z,3.83
2022-11-02T19:29:46.670Z,3.87
2022-11-02T19:32:13.599Z,3.30
2022-11-02T19:34:40.198Z,3.40
2022-11-02T19:37:07.564Z,4.00
2022-11-02T19:39:34.391Z,3.80
2022-11-02T19:42:03.079Z,3.80
2022-11-02T19:44:30.496Z,3.60
2022-11-02T19:46:56.797Z,3.63
2022-11-02T19:49:23.136Z,3.90
2022-11-02T19:51:49.493Z,4.10
2022-11-02T19:54:15.903Z,3.83
2022-11-02T19:56:42.355Z,4.30
2022-11-02T19:59:08.834Z,4.20
2022-11-02T20:01:37.645Z,3.77
2022-11-02T20:04:04.621Z,4.33
2022-11-02T20:06:36.835Z,4.20
2022-11-02T20:09:05.251Z,4.40
2022-11-02T20:11:31.950Z,3.93
2022-11-02T20:14:02.793Z,4.60
2022-11-02T20:16:29.524Z,4.30
2022-11-02T20:18:56.386Z,4.10
2022-11-02T20:21:31.000Z,4.30
2022-11-02T20:24:00.306Z,4.00
2022-11-02T20:26:32.197Z,4.10
2022-11-02T20:29:03.767Z,3.80
2022-11-02T20:31:39.616Z,5.10
2022-11-02T20:34:08.152Z,3.80
2022-11-02T20:36:34.823Z,4.53
2022-11-02T20:39:03.252Z,3.20
2022-11-02T20:41:29.542Z,3.93
2022-11-02T20:43:56.000Z,4.20
2022-11-02T20:46:37.547Z,3.80
2022-11-02T20:49:19.917Z,3.87
2022-11-02T20:51:50.502Z,3.60
2022-11-02T20:54:19.355Z,3.60
2022-11-02T20:56:46.145Z,4.20
2022-11-02T20:59:12.446Z,3.83
2022-11-02T21:01:38.961Z,3.90
2022-11-02T21:04:05.607Z,4.00
2022-11-02T21:06:32.057Z,3.80
2022-11-02T21:09:00.279Z,4.10
2022-11-02T21:11:45.089Z,3.77
2022-11-02T21:14:11.416Z,3.80
2022-11-02T21:16:37.711Z,4.00
2022-11-02T21:19:04.006Z,3.93
2022-11-02T21:21:30.314Z,4.20
2022-11-02T21:23:56.633Z,3.87
2022-11-02T21:26:22.967Z,4.30
2022-11-02T21:28:49.414Z,3.93
2022-11-02T21:31:19.268Z,3.80
2022-11-02T21:33:47.052Z,4.20
2022-11-02T21:36:14.527Z,3.60
2022-11-02T21:38:41.462Z,4.20
2022-11-02T21:41:09.237Z,4.17
2022-11-02T21:43:37.127Z,4.90
2022-11-02T21:46:05.857Z,4.10
2022-11-02T21:48:37.112Z,3.83
2022-11-02T21:51:09.114Z,4.70
2022-11-02T21:53:37.932Z,4.17
2022-11-02T21:56:12.796Z,4.23
2022-11-02T21:58:44.672Z,3.93
2022-11-02T22:01:39.559Z,4.77
2022-11-02T22:04:07.371Z,4.40
2022-11-02T22:06:34.125Z,4.80
2022-11-02T22:09:01.429Z,4.13
2022-11-02T22:11:28.991Z,3.80
2022-11-02T22:13:57.287Z,4.50
2022-11-02T22:16:28.872Z,4.20
2022-11-02T22:18:57.474Z,4.50
2022-11-02T22:21:26.184Z,4.30
2022-11-02T22:23:53.180Z,3.80
2022-11-02T22:26:21.919Z,4.73
2022-11-02T22:28:48.834Z,4.47
2022-11-02T22:31:24.234Z,4.13
2022-11-02T22:33:53.275Z,3.70
2022-11-02T22:36:25.585Z,4.07
2022-11-02T22:38:55.931Z,3.93
2022-11-02T22:41:25.414Z,4.37
2022-11-02T22:43:56.882Z,4.23
2022-11-02T22:46:25.180Z,3.70
2022-11-02T22:48:53.001Z,4.87
2022-11-02T22:51:21.062Z,4.63
2022-11-02T22:53:48.183Z,3.80
2022-11-02T22:56:16.404Z,3.73
2022-11-02T22:58:44.711Z,4.03
2022-11-02T23:01:14.149Z,4.00
2022-11-02T23:03:40.529Z,4.43
2022-11-02T23:06:07.276Z,4.70
2022-11-02T23:08:38.019Z,5.53
2022-11-02T23:11:21.360Z,4.23
2022-11-02T23:13:59.988Z,4.20
2022-11-02T23:16:34.718Z,4.27
2022-11-02T23:19:29.609Z,3.83
2022-11-02T23:22:15.059Z,4.40
2022-11-02T23:25:02.295Z,4.30
2022-11-02T23:27:29.496Z,4.60
2022-11-02T23:30:14.260Z,4.47
2022-11-02T23:32:40.573Z,4.60
2022-11-02T23:35:25.898Z,4.80
2022-11-02T23:38:04.968Z,4.57
2022-11-02T23:40:32.515Z,5.00
2022-11-02T23:42:58.979Z,4.80
2022-11-02T23:45:25.289Z,4.70
2022-11-02T23:47:57.571Z,5.07
2022-11-02T23:50:44.038Z,5.43
2022-11-02T23:53:30.757Z,5.30
2022-11-02T23:56:16.074Z,5.53
2022-11-02T23:58:43.085Z,5.80
